sensor_id;sensor_type;location;lat;lon;timestamp;P1;durP1;ratioP1;P2;durP2;ratioP2
14599;SDS011;7386;45.586;12.854;2022-11-20T00:01:03;1.70;;;1.60;;
14599;SDS011;7386;45.586;12.854;2022-11-20T00:03:33;1.47;;;1.40;;
14599;SDS011;7386;45.586;12.854;2022-11-20T00:06:03;2.40;;;1.40;;
14599;SDS011;7386;45.586;12.854;2022-11-20T00:08:31;1.63;;;1.53;;
14599;SDS011;7386;45.586;12.854;2022-11-20T00:11:02;1.40;;;1.30;;
14599;SDS011;7386;45.586;12.854;2022-11-20T00:13:30;1.60;;;1.50;;
14599;SDS011;7386;45.586;12.854;2022-11-20T00:15:59;4.00;;;1.53;;
14599;SDS011;7386;45.586;12.854;2022-11-20T00:18:28;1.63;;;1.50;;
14599;SDS011;7386;45.586;12.854;2022-11-20T00:21:01;1.60;;;1.40;;
14599;SDS011;7386;45.586;12.854;2022-11-20T00:23:30;4.03;;;1.67;;
14599;SDS011;7386;45.586;12.854;2022-11-20T00:26:00;3.63;;;1.40;;
14599;SDS011;7386;45.586;12.854;2022-11-20T00:28:29;3.37;;;1.50;;
14599;SDS011;7386;45.586;12.854;2022-11-20T00:31:01;3.33;;;1.47;;
14599;SDS011;7386;45.586;12.854;2022-11-20T00:33:30;4.17;;;1.33;;
14599;SDS011;7386;45.586;12.854;2022-11-20T00:35:59;4.63;;;1.70;;
14599;SDS011;7386;45.586;12.854;2022-11-20T00:38:30;6.17;;;1.50;;
14599;SDS011;7386;45.586;12.854;2022-11-20T00:40:58;5.30;;;1.30;;
14599;SDS011;7386;45.586;12.854;2022-11-20T00:43:27;2.17;;;1.27;;
14599;SDS011;7386;45.586;12.854;2022-11-20T00:45:56;6.60;;;1.70;;
14599;SDS011;7386;45.586;12.854;2022-11-20T00:48:25;4.17;;;1.40;;
14599;SDS011;7386;45.586;12.854;2022-11-20T00:50:54;4.20;;;1.60;;
14599;SDS011;7386;45.586;12.854;2022-11-20T00:53:22;4.37;;;1.50;;
14599;SDS011;7386;45.586;12.854;2022-11-20T00:55:55;4.23;;;1.60;;
14599;SDS011;7386;45.586;12.854;2022-11-20T00:58:25;5.93;;;1.40;;
14599;SDS011;7386;45.586;12.854;2022-11-20T01:00:53;7.30;;;1.43;;
14599;SDS011;7386;45.586;12.854;2022-11-20T01:03:27;8.27;;;1.67;;
14599;SDS011;7386;45.586;12.854;2022-11-20T01:05:58;10.97;;;2.37;;
14599;SDS011;7386;45.586;12.854;2022-11-20T01:08:28;9.17;;;1.90;;
14599;SDS011;7386;45.586;12.854;2022-11-20T01:11:02;6.37;;;1.90;;
14599;SDS011;7386;45.586;12.854;2022-11-20T01:13:31;11.77;;;1.70;;
14599;SDS011;7386;45.586;12.854;2022-11-20T01:16:06;5.17;;;1.87;;
14599;SDS011;7386;45.586;12.854;2022-11-20T01:18:35;12.87;;;2.00;;
14599;SDS011;7386;45.586;12.854;2022-11-20T01:21:04;10.47;;;1.97;;
14599;SDS011;7386;45.586;12.854;2022-11-20T01:23:33;7.40;;;1.87;;
14599;SDS011;7386;45.586;12.854;2022-11-20T01:26:04;16.17;;;2.53;;
14599;SDS011;7386;45.586;12.854;2022-11-20T01:28:33;13.77;;;2.27;;
14599;SDS011;7386;45.586;12.854;2022-11-20T01:31:02;15.53;;;2.50;;
14599;SDS011;7386;45.586;12.854;2022-11-20T01:33:38;8.20;;;1.90;;
14599;SDS011;7386;45.586;12.854;2022-11-20T01:36:07;14.03;;;2.67;;
14599;SDS011;7386;45.586;12.854;2022-11-20T01:38:36;14.60;;;2.63;;
14599;SDS011;7386;45.586;12.854;2022-11-20T01:41:06;16.77;;;2.57;;
14599;SDS011;7386;45.586;12.854;2022-11-20T01:43:35;11.07;;;2.20;;
14599;SDS011;7386;45.586;12.854;2022-11-20T01:46:08;16.33;;;2.70;;
14599;SDS011;7386;45.586;12.854;2022-11-20T01:48:46;14.80;;;2.73;;
14599;SDS011;7386;45.586;12.854;2022-11-20T01:51:17;11.60;;;2.37;;
14599;SDS011;7386;45.586;12.854;2022-11-20T01:53:47;16.27;;;2.70;;
14599;SDS011;7386;45.586;12.854;2022-11-20T01:56:18;13.80;;;2.80;;
14599;SDS011;7386;45.586;12.854;2022-11-20T01:58:47;12.70;;;2.50;;
14599;SDS011;7386;45.586;12.854;2022-11-20T02:01:17;14.77;;;2.50;;
14599;SDS011;7386;45.586;12.854;2022-11-20T02:03:46;13.87;;;2.27;;
14599;SDS011;7386;45.586;12.854;2022-11-20T02:06:16;16.93;;;2.33;;
14599;SDS011;7386;45.586;12.854;2022-11-20T02:08:45;11.57;;;2.23;;
14599;SDS011;7386;45.586;12.854;2022-11-20T02:11:13;8.73;;;1.70;;
14599;SDS011;7386;45.586;12.854;2022-11-20T02:13:43;8.87;;;2.20;;
14599;SDS011;7386;45.586;12.854;2022-11-20T02:16:12;12.30;;;2.27;;
14599;SDS011;7386;45.586;12.854;2022-11-20T02:18:42;19.33;;;3.07;;
14599;SDS011;7386;45.586;12.854;2022-11-20T02:21:13;16.10;;;2.43;;
14599;SDS011;7386;45.586;12.854;2022-11-20T02:23:53;19.93;;;2.93;;
14599;SDS011;7386;45.586;12.854;2022-11-20T02:26:21;18.20;;;2.80;;
14599;SDS011;7386;45.586;12.854;2022-11-20T02:28:51;11.20;;;2.30;;
14599;SDS011;7386;45.586;12.854;2022-11-20T02:31:19;20.57;;;2.30;;
14599;SDS011;7386;45.586;12.854;2022-11-20T02:33:53;16.07;;;2.67;;
14599;SDS011;7386;45.586;12.854;2022-11-20T02:36:22;14.47;;;2.77;;
14599;SDS011;7386;45.586;12.854;2022-11-20T02:38:53;17.30;;;2.40;;
14599;SDS011;7386;45.586;12.854;2022-11-20T02:41:22;15.70;;;2.90;;
14599;SDS011;7386;45.586;12.854;2022-11-20T02:43:58;14.00;;;2.27;;
14599;SDS011;7386;45.586;12.854;2022-11-20T02:46:26;16.63;;;2.60;;
14599;SDS011;7386;45.586;12.854;2022-11-20T02:48:55;11.47;;;2.00;;
14599;SDS011;7386;45.586;12.854;2022-11-20T02:51:24;13.43;;;2.07;;
14599;SDS011;7386;45.586;12.854;2022-11-20T02:53:54;22.43;;;2.33;;
14599;SDS011;7386;45.586;12.854;2022-11-20T02:56:22;13.47;;;2.60;;
14599;SDS011;7386;45.586;12.854;2022-11-20T02:58:51;11.97;;;2.27;;
14599;SDS011;7386;45.586;12.854;2022-11-20T03:01:19;8.07;;;1.80;;
14599;SDS011;7386;45.586;12.854;2022-11-20T03:03:48;14.70;;;2.17;;
14599;SDS011;7386;45.586;12.854;2022-11-20T03:06:18;13.77;;;2.10;;
14599;SDS011;7386;45.586;12.854;2022-11-20T03:08:47;12.63;;;2.20;;
14599;SDS011;7386;45.586;12.854;2022-11-20T03:11:16;23.43;;;3.57;;
14599;SDS011;7386;45.586;12.854;2022-11-20T03:13:45;19.23;;;2.80;;
14599;SDS011;7386;45.586;12.854;2022-11-20T03:16:14;23.03;;;2.83;;
14599;SDS011;7386;45.586;12.854;2022-11-20T03:18:43;9.07;;;1.80;;
14599;SDS011;7386;45.586;12.854;2022-11-20T03:21:12;10.83;;;2.37;;
14599;SDS011;7386;45.586;12.854;2022-11-20T03:23:41;15.50;;;2.23;;
14599;SDS011;7386;45.586;12.854;2022-11-20T03:26:10;15.43;;;2.60;;
14599;SDS011;7386;45.586;12.854;2022-11-20T03:28:41;13.20;;;2.30;;
14599;SDS011;7386;45.586;12.854;2022-11-20T03:31:10;11.10;;;2.00;;
14599;SDS011;7386;45.586;12.854;2022-11-20T03:33:39;10.47;;;1.90;;
14599;SDS011;7386;45.586;12.854;2022-11-20T03:36:09;24.23;;;2.50;;
14599;SDS011;7386;45.586;12.854;2022-11-20T03:38:38;11.23;;;2.03;;
14599;SDS011;7386;45.586;12.854;2022-11-20T03:41:07;22.40;;;2.83;;
14599;SDS011;7386;45.586;12.854;2022-11-20T03:43:36;23.67;;;2.93;;
14599;SDS011;7386;45.586;12.854;2022-11-20T03:46:06;29.43;;;3.07;;
14599;SDS011;7386;45.586;12.854;2022-11-20T03:48:35;16.67;;;2.60;;
14599;SDS011;7386;45.586;12.854;2022-11-20T03:51:07;9.40;;;1.70;;
14599;SDS011;7386;45.586;12.854;2022-11-20T03:53:35;9.57;;;1.63;;
14599;SDS011;7386;45.586;12.854;2022-11-20T03:56:04;11.43;;;2.00;;
14599;SDS011;7386;45.586;12.854;2022-11-20T03:58:33;12.40;;;2.00;;
14599;SDS011;7386;45.586;12.854;2022-11-20T04:01:07;8.97;;;1.73;;
14599;SDS011;7386;45.586;12.854;2022-11-20T04:03:37;7.73;;;1.53;;
14599;SDS011;7386;45.586;12.854;2022-11-20T04:06:06;4.43;;;1.63;;
14599;SDS011;7386;45.586;12.854;2022-11-20T04:08:35;5.20;;;1.20;;
14599;SDS011;7386;45.586;12.854;2022-11-20T04:11:07;4.57;;;1.30;;
14599;SDS011;7386;45.586;12.854;2022-11-20T04:13:36;4.53;;;1.20;;
14599;SDS011;7386;45.586;12.854;2022-11-20T04:16:05;4.97;;;1.17;;
14599;SDS011;7386;45.586;12.854;2022-11-20T04:18:35;5.33;;;1.23;;
14599;SDS011;7386;45.586;12.854;2022-11-20T04:21:04;4.30;;;1.20;;
14599;SDS011;7386;45.586;12.854;2022-11-20T04:23:32;5.23;;;1.17;;
14599;SDS011;7386;45.586;12.854;2022-11-20T04:26:02;2.30;;;0.93;;
14599;SDS011;7386;45.586;12.854;2022-11-20T04:28:30;1.10;;;1.00;;
14599;SDS011;7386;45.586;12.854;2022-11-20T04:31:02;3.27;;;1.10;;
14599;SDS011;7386;45.586;12.854;2022-11-20T04:33:31;1.37;;;0.90;;
14599;SDS011;7386;45.586;12.854;2022-11-20T04:36:02;2.23;;;0.93;;
14599;SDS011;7386;45.586;12.854;2022-11-20T04:38:31;1.03;;;0.93;;
14599;SDS011;7386;45.586;12.854;2022-11-20T04:41:00;2.60;;;0.97;;
14599;SDS011;7386;45.586;12.854;2022-11-20T04:43:29;1.07;;;0.90;;
14599;SDS011;7386;45.586;12.854;2022-11-20T04:45:57;2.23;;;0.97;;
14599;SDS011;7386;45.586;12.854;2022-11-20T04:48:26;0.80;;;0.80;;
14599;SDS011;7386;45.586;12.854;2022-11-20T04:50:55;1.23;;;0.93;;
14599;SDS011;7386;45.586;12.854;2022-11-20T04:53:25;1.17;;;0.80;;
14599;SDS011;7386;45.586;12.854;2022-11-20T04:55:58;0.83;;;0.83;;
14599;SDS011;7386;45.586;12.854;2022-11-20T04:58:27;1.87;;;0.93;;
14599;SDS011;7386;45.586;12.854;2022-11-20T05:01:00;1.43;;;1.00;;
14599;SDS011;7386;45.586;12.854;2022-11-20T05:03:29;0.90;;;0.90;;
14599;SDS011;7386;45.586;12.854;2022-11-20T05:05:59;3.43;;;1.10;;
14599;SDS011;7386;45.586;12.854;2022-11-20T05:08:30;0.87;;;0.87;;
14599;SDS011;7386;45.586;12.854;2022-11-20T05:10:59;1.00;;;1.00;;
14599;SDS011;7386;45.586;12.854;2022-11-20T05:13:28;1.17;;;1.17;;
14599;SDS011;7386;45.586;12.854;2022-11-20T05:16:00;1.53;;;1.00;;
14599;SDS011;7386;45.586;12.854;2022-11-20T05:18:29;2.17;;;0.90;;
14599;SDS011;7386;45.586;12.854;2022-11-20T05:20:58;1.23;;;0.90;;
14599;SDS011;7386;45.586;12.854;2022-11-20T05:23:26;1.30;;;1.20;;
14599;SDS011;7386;45.586;12.854;2022-11-20T05:25:57;1.30;;;0.97;;
14599;SDS011;7386;45.586;12.854;2022-11-20T05:28:26;0.87;;;0.87;;
14599;SDS011;7386;45.586;12.854;2022-11-20T05:30:54;2.10;;;1.00;;
14599;SDS011;7386;45.586;12.854;2022-11-20T05:33:23;1.10;;;1.00;;
14599;SDS011;7386;45.586;12.854;2022-11-20T05:35:51;1.00;;;1.00;;
14599;SDS011;7386;45.586;12.854;2022-11-20T05:38:20;2.20;;;1.20;;
14599;SDS011;7386;45.586;12.854;2022-11-20T05:40:48;1.10;;;1.10;;
14599;SDS011;7386;45.586;12.854;2022-11-20T05:43:18;1.40;;;1.30;;
14599;SDS011;7386;45.586;12.854;2022-11-20T05:45:51;1.70;;;1.13;;
14599;SDS011;7386;45.586;12.854;2022-11-20T05:48:20;1.20;;;1.20;;
14599;SDS011;7386;45.586;12.854;2022-11-20T05:50:48;1.27;;;1.27;;
14599;SDS011;7386;45.586;12.854;2022-11-20T05:53:16;1.20;;;1.20;;
14599;SDS011;7386;45.586;12.854;2022-11-20T05:55:44;1.17;;;1.17;;
14599;SDS011;7386;45.586;12.854;2022-11-20T05:58:13;1.40;;;1.30;;
14599;SDS011;7386;45.586;12.854;2022-11-20T06:00:43;1.20;;;1.13;;
14599;SDS011;7386;45.586;12.854;2022-11-20T06:03:11;1.67;;;1.33;;
14599;SDS011;7386;45.586;12.854;2022-11-20T06:05:40;1.23;;;1.20;;
14599;SDS011;7386;45.586;12.854;2022-11-20T06:08:08;1.20;;;1.20;;
14599;SDS011;7386;45.586;12.854;2022-11-20T06:10:37;1.57;;;1.47;;
14599;SDS011;7386;45.586;12.854;2022-11-20T06:13:05;1.40;;;1.30;;
14599;SDS011;7386;45.586;12.854;2022-11-20T06:15:33;1.23;;;1.23;;
14599;SDS011;7386;45.586;12.854;2022-11-20T06:18:03;1.30;;;1.30;;
14599;SDS011;7386;45.586;12.854;2022-11-20T06:20:32;1.40;;;1.30;;
14599;SDS011;7386;45.586;12.854;2022-11-20T06:23:07;1.20;;;1.20;;
14599;SDS011;7386;45.586;12.854;2022-11-20T06:25:37;1.20;;;1.20;;
14599;SDS011;7386;45.586;12.854;2022-11-20T06:28:05;1.30;;;1.30;;
14599;SDS011;7386;45.586;12.854;2022-11-20T06:30:34;2.60;;;1.43;;
14599;SDS011;7386;45.586;12.854;2022-11-20T06:33:04;1.57;;;1.47;;
14599;SDS011;7386;45.586;12.854;2022-11-20T06:35:32;1.10;;;1.10;;
14599;SDS011;7386;45.586;12.854;2022-11-20T06:38:01;1.40;;;1.30;;
14599;SDS011;7386;45.586;12.854;2022-11-20T06:40:29;1.87;;;1.20;;
14599;SDS011;7386;45.586;12.854;2022-11-20T06:42:57;1.20;;;1.20;;
14599;SDS011;7386;45.586;12.854;2022-11-20T06:45:26;1.20;;;1.20;;
14599;SDS011;7386;45.586;12.854;2022-11-20T06:47:56;1.30;;;1.30;;
14599;SDS011;7386;45.586;12.854;2022-11-20T06:50:26;1.23;;;1.23;;
14599;SDS011;7386;45.586;12.854;2022-11-20T06:52:55;1.60;;;1.50;;
14599;SDS011;7386;45.586;12.854;2022-11-20T06:55:23;1.43;;;1.33;;
14599;SDS011;7386;45.586;12.854;2022-11-20T06:57:52;1.50;;;1.40;;
14599;SDS011;7386;45.586;12.854;2022-11-20T07:00:21;1.50;;;1.40;;
14599;SDS011;7386;45.586;12.854;2022-11-20T07:02:49;1.40;;;1.30;;
14599;SDS011;7386;45.586;12.854;2022-11-20T07:05:18;1.53;;;1.40;;
14599;SDS011;7386;45.586;12.854;2022-11-20T07:07:48;1.50;;;1.40;;
14599;SDS011;7386;45.586;12.854;2022-11-20T07:10:16;1.50;;;1.40;;
14599;SDS011;7386;45.586;12.854;2022-11-20T07:12:48;1.30;;;1.30;;
14599;SDS011;7386;45.586;12.854;2022-11-20T07:15:18;1.50;;;1.40;;
14599;SDS011;7386;45.586;12.854;2022-11-20T07:17:46;1.50;;;1.40;;
14599;SDS011;7386;45.586;12.854;2022-11-20T07:20:15;1.50;;;1.40;;
14599;SDS011;7386;45.586;12.854;2022-11-20T07:22:43;1.43;;;1.33;;
14599;SDS011;7386;45.586;12.854;2022-11-20T07:25:13;1.43;;;1.40;;
14599;SDS011;7386;45.586;12.854;2022-11-20T07:27:42;1.40;;;1.30;;
14599;SDS011;7386;45.586;12.854;2022-11-20T07:30:10;1.37;;;1.27;;
14599;SDS011;7386;45.586;12.854;2022-11-20T07:32:40;1.50;;;1.40;;
14599;SDS011;7386;45.586;12.854;2022-11-20T07:35:08;1.73;;;1.50;;
14599;SDS011;7386;45.586;12.854;2022-11-20T07:37:36;1.50;;;1.40;;
14599;SDS011;7386;45.586;12.854;2022-11-20T07:40:05;1.43;;;1.33;;
14599;SDS011;7386;45.586;12.854;2022-11-20T07:42:35;1.60;;;1.50;;
14599;SDS011;7386;45.586;12.854;2022-11-20T07:45:03;1.60;;;1.50;;
14599;SDS011;7386;45.586;12.854;2022-11-20T07:47:34;1.30;;;1.20;;
14599;SDS011;7386;45.586;12.854;2022-11-20T07:50:03;1.40;;;1.30;;
14599;SDS011;7386;45.586;12.854;2022-11-20T07:52:32;1.40;;;1.30;;
14599;SDS011;7386;45.586;12.854;2022-11-20T07:55:00;1.50;;;1.40;;
14599;SDS011;7386;45.586;12.854;2022-11-20T07:57:28;1.20;;;1.20;;
14599;SDS011;7386;45.586;12.854;2022-11-20T07:59:58;1.50;;;1.40;;
14599;SDS011;7386;45.586;12.854;2022-11-20T08:02:26;1.47;;;1.40;;
14599;SDS011;7386;45.586;12.854;2022-11-20T08:04:54;1.30;;;1.30;;
14599;SDS011;7386;45.586;12.854;2022-11-20T08:07:23;2.10;;;1.47;;
14599;SDS011;7386;45.586;12.854;2022-11-20T08:09:51;1.47;;;1.40;;
14599;SDS011;7386;45.586;12.854;2022-11-20T08:12:19;3.03;;;1.80;;
14599;SDS011;7386;45.586;12.854;2022-11-20T08:15:08;1.70;;;1.60;;
14599;SDS011;7386;45.586;12.854;2022-11-20T08:17:38;2.03;;;1.80;;
14599;SDS011;7386;45.586;12.854;2022-11-20T08:20:07;1.80;;;1.70;;
14599;SDS011;7386;45.586;12.854;2022-11-20T08:22:36;1.97;;;1.80;;
14599;SDS011;7386;45.586;12.854;2022-11-20T08:25:04;1.70;;;1.60;;
14599;SDS011;7386;45.586;12.854;2022-11-20T08:27:33;2.10;;;1.90;;
14599;SDS011;7386;45.586;12.854;2022-11-20T08:30:04;2.50;;;1.80;;
14599;SDS011;7386;45.586;12.854;2022-11-20T08:32:35;1.93;;;1.83;;
14599;SDS011;7386;45.586;12.854;2022-11-20T08:35:04;1.87;;;1.70;;
14599;SDS011;7386;45.586;12.854;2022-11-20T08:37:32;2.10;;;1.90;;
14599;SDS011;7386;45.586;12.854;2022-11-20T08:40:00;3.00;;;1.93;;
14599;SDS011;7386;45.586;12.854;2022-11-20T08:42:28;2.60;;;2.30;;
14599;SDS011;7386;45.586;12.854;2022-11-20T08:44:57;2.37;;;2.10;;
14599;SDS011;7386;45.586;12.854;2022-11-20T08:47:26;2.27;;;2.07;;
14599;SDS011;7386;45.586;12.854;2022-11-20T08:49:54;2.67;;;2.30;;
14599;SDS011;7386;45.586;12.854;2022-11-20T08:52:23;2.30;;;2.10;;
14599;SDS011;7386;45.586;12.854;2022-11-20T08:54:51;2.47;;;2.17;;
14599;SDS011;7386;45.586;12.854;2022-11-20T08:57:19;2.40;;;2.20;;
14599;SDS011;7386;45.586;12.854;2022-11-20T08:59:47;2.63;;;2.33;;
14599;SDS011;7386;45.586;12.854;2022-11-20T09:02:32;2.97;;;2.67;;
14599;SDS011;7386;45.586;12.854;2022-11-20T09:05:01;4.43;;;2.50;;
14599;SDS011;7386;45.586;12.854;2022-11-20T09:07:30;2.60;;;2.40;;
14599;SDS011;7386;45.586;12.854;2022-11-20T09:09:58;2.97;;;2.67;;
14599;SDS011;7386;45.586;12.854;2022-11-20T09:12:48;3.20;;;2.90;;
14599;SDS011;7386;45.586;12.854;2022-11-20T09:15:16;3.07;;;2.40;;
14599;SDS011;7386;45.586;12.854;2022-11-20T09:17:51;3.67;;;2.93;;
14599;SDS011;7386;45.586;12.854;2022-11-20T09:20:19;2.90;;;2.60;;
14599;SDS011;7386;45.586;12.854;2022-11-20T09:22:48;3.03;;;2.73;;
14599;SDS011;7386;45.586;12.854;2022-11-20T09:25:16;3.10;;;2.80;;
14599;SDS011;7386;45.586;12.854;2022-11-20T09:27:45;4.13;;;3.53;;
14599;SDS011;7386;45.586;12.854;2022-11-20T09:30:13;3.47;;;3.10;;
14599;SDS011;7386;45.586;12.854;2022-11-20T09:32:42;4.77;;;3.50;;
14599;SDS011;7386;45.586;12.854;2022-11-20T09:35:12;4.37;;;3.40;;
14599;SDS011;7386;45.586;12.854;2022-11-20T09:37:40;3.13;;;2.80;;
14599;SDS011;7386;45.586;12.854;2022-11-20T09:40:09;3.40;;;2.93;;
14599;SDS011;7386;45.586;12.854;2022-11-20T09:42:49;3.70;;;3.17;;
14599;SDS011;7386;45.586;12.854;2022-11-20T09:45:23;4.13;;;3.43;;
14599;SDS011;7386;45.586;12.854;2022-11-20T09:48:02;4.40;;;3.60;;
14599;SDS011;7386;45.586;12.854;2022-11-20T09:50:45;4.33;;;3.40;;
14599;SDS011;7386;45.586;12.854;2022-11-20T09:53:20;4.37;;;3.60;;
14599;SDS011;7386;45.586;12.854;2022-11-20T09:55:58;3.90;;;3.10;;
14599;SDS011;7386;45.586;12.854;2022-11-20T09:58:31;3.77;;;3.20;;
14599;SDS011;7386;45.586;12.854;2022-11-20T10:01:05;3.73;;;2.90;;
14599;SDS011;7386;45.586;12.854;2022-11-20T10:03:41;3.83;;;3.20;;
14599;SDS011;7386;45.586;12.854;2022-11-20T10:06:18;3.83;;;3.07;;
14599;SDS011;7386;45.586;12.854;2022-11-20T10:08:54;4.03;;;3.20;;
14599;SDS011;7386;45.586;12.854;2022-11-20T10:11:28;3.50;;;3.03;;
14599;SDS011;7386;45.586;12.854;2022-11-20T10:14:04;3.40;;;3.10;;
14599;SDS011;7386;45.586;12.854;2022-11-20T10:16:43;4.37;;;3.17;;
14599;SDS011;7386;45.586;12.854;2022-11-20T10:19:26;3.20;;;2.83;;
14599;SDS011;7386;45.586;12.854;2022-11-20T10:22:07;4.23;;;3.10;;
14599;SDS011;7386;45.586;12.854;2022-11-20T10:24:48;5.90;;;3.00;;
14599;SDS011;7386;45.586;12.854;2022-11-20T10:27:39;3.10;;;2.80;;
14599;SDS011;7386;45.586;12.854;2022-11-20T10:30:24;5.07;;;2.90;;
14599;SDS011;7386;45.586;12.854;2022-11-20T10:32:54;2.97;;;2.67;;
14599;SDS011;7386;45.586;12.854;2022-11-20T10:35:28;3.30;;;3.00;;
14599;SDS011;7386;45.586;12.854;2022-11-20T10:38:03;3.43;;;3.03;;
14599;SDS011;7386;45.586;12.854;2022-11-20T10:40:37;4.87;;;3.10;;
14599;SDS011;7386;45.586;12.854;2022-11-20T10:43:10;3.80;;;3.10;;
14599;SDS011;7386;45.586;12.854;2022-11-20T10:45:46;5.70;;;3.33;;
14599;SDS011;7386;45.586;12.854;2022-11-20T10:48:20;5.70;;;3.50;;
14599;SDS011;7386;45.586;12.854;2022-11-20T10:50:55;4.13;;;3.13;;
14599;SDS011;7386;45.586;12.854;2022-11-20T10:53:42;3.77;;;3.03;;
14599;SDS011;7386;45.586;12.854;2022-11-20T10:56:19;4.47;;;3.00;;
14599;SDS011;7386;45.586;12.854;2022-11-20T10:58:54;2.67;;;2.47;;
14599;SDS011;7386;45.586;12.854;2022-11-20T11:01:39;3.30;;;2.80;;
14599;SDS011;7386;45.586;12.854;2022-11-20T11:04:15;2.67;;;2.47;;
14599;SDS011;7386;45.586;12.854;2022-11-20T11:06:51;3.20;;;2.50;;
14599;SDS011;7386;45.586;12.854;2022-11-20T11:09:27;3.57;;;2.63;;
14599;SDS011;7386;45.586;12.854;2022-11-20T11:12:00;2.47;;;2.27;;
14599;SDS011;7386;45.586;12.854;2022-11-20T11:14:41;2.70;;;2.37;;
14599;SDS011;7386;45.586;12.854;2022-11-20T11:17:18;2.33;;;2.13;;
14599;SDS011;7386;45.586;12.854;2022-11-20T11:19:57;3.67;;;2.70;;
14599;SDS011;7386;45.586;12.854;2022-11-20T11:22:26;2.83;;;2.50;;
14599;SDS011;7386;45.586;12.854;2022-11-20T11:24:58;2.57;;;2.20;;
14599;SDS011;7386;45.586;12.854;2022-11-20T11:27:26;4.33;;;2.40;;
14599;SDS011;7386;45.586;12.854;2022-11-20T11:32:41;2.30;;;2.10;;
14599;SDS011;7386;45.586;12.854;2022-11-20T11:35:20;3.07;;;2.53;;
14599;SDS011;7386;45.586;12.854;2022-11-20T11:37:53;3.73;;;2.50;;
14599;SDS011;7386;45.586;12.854;2022-11-20T11:40:32;2.50;;;2.20;;
14599;SDS011;7386;45.586;12.854;2022-11-20T11:43:04;3.83;;;2.33;;
14599;SDS011;7386;45.586;12.854;2022-11-20T11:46:01;5.37;;;3.00;;
14599;SDS011;7386;45.586;12.854;2022-11-20T11:48:34;2.30;;;2.10;;
14599;SDS011;7386;45.586;12.854;2022-11-20T11:51:02;2.70;;;2.00;;
14599;SDS011;7386;45.586;12.854;2022-11-20T11:53:35;2.87;;;1.87;;
14599;SDS011;7386;45.586;12.854;2022-11-20T11:56:10;2.70;;;1.70;;
14599;SDS011;7386;45.586;12.854;2022-11-20T11:58:42;1.73;;;1.40;;
14599;SDS011;7386;45.586;12.854;2022-11-20T12:01:18;3.87;;;1.40;;
14599;SDS011;7386;45.586;12.854;2022-11-20T12:03:53;3.63;;;1.53;;
14599;SDS011;7386;45.586;12.854;2022-11-20T12:06:27;1.63;;;1.30;;
14599;SDS011;7386;45.586;12.854;2022-11-20T12:08:59;2.20;;;1.20;;
14599;SDS011;7386;45.586;12.854;2022-11-20T12:11:33;2.10;;;1.20;;
14599;SDS011;7386;45.586;12.854;2022-11-20T12:14:09;3.00;;;1.20;;
14599;SDS011;7386;45.586;12.854;2022-11-20T12:16:42;1.67;;;1.43;;
14599;SDS011;7386;45.586;12.854;2022-11-20T12:19:11;1.43;;;1.13;;
14599;SDS011;7386;45.586;12.854;2022-11-20T12:21:43;1.40;;;1.30;;
14599;SDS011;7386;45.586;12.854;2022-11-20T12:24:33;1.50;;;1.37;;
14599;SDS011;7386;45.586;12.854;2022-11-20T12:27:18;4.43;;;1.27;;
14599;SDS011;7386;45.586;12.854;2022-11-20T12:30:04;4.40;;;1.70;;
14599;SDS011;7386;45.586;12.854;2022-11-20T12:32:43;2.63;;;1.23;;
14599;SDS011;7386;45.586;12.854;2022-11-20T12:35:32;2.13;;;1.50;;
14599;SDS011;7386;45.586;12.854;2022-11-20T12:38:34;4.90;;;1.47;;
14599;SDS011;7386;45.586;12.854;2022-11-20T12:41:18;6.00;;;1.53;;
14599;SDS011;7386;45.586;12.854;2022-11-20T12:44:16;2.43;;;1.37;;
14599;SDS011;7386;45.586;12.854;2022-11-20T12:47:16;1.50;;;1.40;;
14599;SDS011;7386;45.586;12.854;2022-11-20T12:49:52;2.80;;;1.50;;
14599;SDS011;7386;45.586;12.854;2022-11-20T12:52:34;2.83;;;1.53;;
14599;SDS011;7386;45.586;12.854;2022-11-20T12:55:16;1.73;;;1.40;;
14599;SDS011;7386;45.586;12.854;2022-11-20T12:57:53;2.83;;;1.40;;
14599;SDS011;7386;45.586;12.854;2022-11-20T13:00:25;2.03;;;1.43;;
14599;SDS011;7386;45.586;12.854;2022-11-20T13:03:00;1.37;;;1.27;;
14599;SDS011;7386;45.586;12.854;2022-11-20T13:05:43;2.53;;;1.50;;
14599;SDS011;7386;45.586;12.854;2022-11-20T13:08:22;1.70;;;1.30;;
14599;SDS011;7386;45.586;12.854;2022-11-20T13:10:55;1.97;;;1.10;;
14599;SDS011;7386;45.586;12.854;2022-11-20T13:13:30;3.77;;;1.30;;
14599;SDS011;7386;45.586;12.854;2022-11-20T13:16:08;5.67;;;1.40;;
14599;SDS011;7386;45.586;12.854;2022-11-20T13:18:43;3.40;;;1.40;;
14599;SDS011;7386;45.586;12.854;2022-11-20T13:21:15;1.63;;;1.23;;
14599;SDS011;7386;45.586;12.854;2022-11-20T13:23:44;1.70;;;1.10;;
14599;SDS011;7386;45.586;12.854;2022-11-20T13:26:15;1.53;;;1.30;;
14599;SDS011;7386;45.586;12.854;2022-11-20T13:28:45;1.20;;;1.10;;
14599;SDS011;7386;45.586;12.854;2022-11-20T13:31:25;2.33;;;1.50;;
14599;SDS011;7386;45.586;12.854;2022-11-20T13:33:58;1.40;;;1.30;;
14599;SDS011;7386;45.586;12.854;2022-11-20T13:36:29;1.10;;;1.10;;
14599;SDS011;7386;45.586;12.854;2022-11-20T13:38:59;1.63;;;1.30;;
14599;SDS011;7386;45.586;12.854;2022-11-20T13:41:28;1.77;;;1.20;;
14599;SDS011;7386;45.586;12.854;2022-11-20T13:44:10;3.50;;;1.30;;
14599;SDS011;7386;45.586;12.854;2022-11-20T13:46:42;1.33;;;1.17;;
14599;SDS011;7386;45.586;12.854;2022-11-20T13:49:16;1.53;;;1.30;;
14599;SDS011;7386;45.586;12.854;2022-11-20T13:51:56;1.10;;;1.10;;
14599;SDS011;7386;45.586;12.854;2022-11-20T13:54:49;1.50;;;1.20;;
14599;SDS011;7386;45.586;12.854;2022-11-20T13:57:39;1.40;;;1.30;;
14599;SDS011;7386;45.586;12.854;2022-11-20T14:00:24;1.17;;;1.10;;
14599;SDS011;7386;45.586;12.854;2022-11-20T14:02:59;2.70;;;1.30;;
14599;SDS011;7386;45.586;12.854;2022-11-20T14:05:38;2.40;;;1.30;;
14599;SDS011;7386;45.586;12.854;2022-11-20T14:08:17;1.63;;;1.30;;
14599;SDS011;7386;45.586;12.854;2022-11-20T14:11:04;3.50;;;1.47;;
14599;SDS011;7386;45.586;12.854;2022-11-20T14:13:33;1.30;;;1.20;;
14599;SDS011;7386;45.586;12.854;2022-11-20T14:16:01;1.50;;;1.20;;
14599;SDS011;7386;45.586;12.854;2022-11-20T14:18:31;1.40;;;1.30;;
14599;SDS011;7386;45.586;12.854;2022-11-20T14:21:00;1.43;;;1.20;;
14599;SDS011;7386;45.586;12.854;2022-11-20T14:23:30;1.30;;;1.20;;
14599;SDS011;7386;45.586;12.854;2022-11-20T14:25:58;1.33;;;1.10;;
14599;SDS011;7386;45.586;12.854;2022-11-20T14:28:26;3.17;;;1.33;;
14599;SDS011;7386;45.586;12.854;2022-11-20T14:30:56;1.20;;;1.20;;
14599;SDS011;7386;45.586;12.854;2022-11-20T14:33:25;1.27;;;1.17;;
14599;SDS011;7386;45.586;12.854;2022-11-20T14:35:55;1.40;;;1.30;;
14599;SDS011;7386;45.586;12.854;2022-11-20T14:38:26;1.53;;;1.40;;
14599;SDS011;7386;45.586;12.854;2022-11-20T14:41:05;3.17;;;1.70;;
14599;SDS011;7386;45.586;12.854;2022-11-20T14:43:34;1.80;;;1.40;;
14599;SDS011;7386;45.586;12.854;2022-11-20T14:46:04;1.50;;;1.40;;
14599;SDS011;7386;45.586;12.854;2022-11-20T14:48:36;1.47;;;1.40;;
14599;SDS011;7386;45.586;12.854;2022-11-20T14:51:10;1.50;;;1.40;;
14599;SDS011;7386;45.586;12.854;2022-11-20T14:53:38;1.47;;;1.37;;
14599;SDS011;7386;45.586;12.854;2022-11-20T14:56:07;2.67;;;1.50;;
14599;SDS011;7386;45.586;12.854;2022-11-20T14:58:36;4.23;;;1.53;;
14599;SDS011;7386;45.586;12.854;2022-11-20T15:01:05;1.67;;;1.57;;
14599;SDS011;7386;45.586;12.854;2022-11-20T15:03:35;3.50;;;1.43;;
14599;SDS011;7386;45.586;12.854;2022-11-20T15:06:05;1.43;;;1.33;;
14599;SDS011;7386;45.586;12.854;2022-11-20T15:08:35;1.70;;;1.50;;
14599;SDS011;7386;45.586;12.854;2022-11-20T15:11:14;1.60;;;1.50;;
14599;SDS011;7386;45.586;12.854;2022-11-20T15:13:45;3.13;;;1.47;;
14599;SDS011;7386;45.586;12.854;2022-11-20T15:16:14;1.73;;;1.40;;